sensor_id;sensor_type;location;lat;lon;timestamp;pressure;altitude;pressure_sealevel;temperature;humidity
72024;BME280;59889;50.700;5.440;2023-05-10T00:00:54;99375.93;;;24.07;35.13
72024;BME280;59889;50.700;5.440;2023-05-10T00:03:20;99376.48;;;23.80;35.44
72024;BME280;59889;50.700;5.440;2023-05-10T00:05:46;99375.41;;;23.82;35.44
72024;BME280;59889;50.700;5.440;2023-05-10T00:08:12;99378.06;;;24.24;35.20
72024;BME280;59889;50.700;5.440;2023-05-10T00:10:38;99375.94;;;23.89;35.34
72024;BME280;59889;50.700;5.440;2023-05-10T00:13:03;99373.41;;;23.90;35.33
72024;BME280;59889;50.700;5.440;2023-05-10T00:15:28;99369.55;;;24.24;35.21
72024;BME280;59889;50.700;5.440;2023-05-10T00:17:54;99370.25;;;24.16;35.32
72024;BME280;59889;50.700;5.440;2023-05-10T00:20:19;99367.03;;;24.45;35.24
72024;BME280;59889;50.700;5.440;2023-05-10T00:22:45;99365.66;;;23.94;35.29
72024;BME280;59889;50.700;5.440;2023-05-10T00:25:10;99366.77;;;24.28;35.16
72024;BME280;59889;50.700;5.440;2023-05-10T00:27:36;99369.44;;;24.16;35.29
72024;BME280;59889;50.700;5.440;2023-05-10T00:30:01;99368.38;;;24.02;35.20
72024;BME280;59889;50.700;5.440;2023-05-10T00:32:26;99371.85;;;23.89;35.35
72024;BME280;59889;50.700;5.440;2023-05-10T00:34:51;99366.72;;;24.14;35.34
72024;BME280;59889;50.700;5.440;2023-05-10T00:37:17;99367.54;;;24.18;35.28
72024;BME280;59889;50.700;5.440;2023-05-10T00:39:42;99367.53;;;24.16;35.32
72024;BME280;59889;50.700;5.440;2023-05-10T00:42:08;99367.25;;;24.67;34.97
72024;BME280;59889;50.700;5.440;2023-05-10T00:44:34;99369.71;;;24.43;35.28
72024;BME280;59889;50.700;5.440;2023-05-10T00:46:59;99374.08;;;24.19;35.28
72024;BME280;59889;50.700;5.440;2023-05-10T00:49:25;99370.36;;;24.10;35.09
72024;BME280;59889;50.700;5.440;2023-05-10T00:51:51;99373.54;;;24.39;35.32
72024;BME280;59889;50.700;5.440;2023-05-10T00:54:17;99375.62;;;24.47;35.23
72024;BME280;59889;50.700;5.440;2023-05-10T00:56:43;99378.43;;;23.89;35.35
72024;BME280;59889;50.700;5.440;2023-05-10T00:59:09;99376.09;;;24.19;35.28
72024;BME280;59889;50.700;5.440;2023-05-10T01:01:35;99377.44;;;23.91;35.33
72024;BME280;59889;50.700;5.440;2023-05-10T01:04:00;99378.28;;;23.91;35.35
72024;BME280;59889;50.700;5.440;2023-05-10T01:06:26;99380.23;;;24.05;35.14
72024;BME280;59889;50.700;5.440;2023-05-10T01:08:52;99383.26;;;24.12;35.36
72024;BME280;59889;50.700;5.440;2023-05-10T01:11:18;99381.67;;;23.86;35.38
72024;BME280;59889;50.700;5.440;2023-05-10T01:13:50;99381.56;;;24.36;35.07
72024;BME280;59889;50.700;5.440;2023-05-10T01:16:10;99388.20;;;23.89;35.35
72024;BME280;59889;50.700;5.440;2023-05-10T01:18:38;99389.53;;;23.97;35.25
72024;BME280;59889;50.700;5.440;2023-05-10T01:21:13;99386.52;;;23.98;35.23
72024;BME280;59889;50.700;5.440;2023-05-10T01:23:36;99385.87;;;24.17;35.31
72024;BME280;59889;50.700;5.440;2023-05-10T01:26:12;99384.83;;;23.87;35.34
72024;BME280;59889;50.700;5.440;2023-05-10T01:31:01;99383.67;;;23.94;35.28
72024;BME280;59889;50.700;5.440;2023-05-10T01:33:11;99383.28;;;24.13;35.32
72024;BME280;59889;50.700;5.440;2023-05-10T01:35:39;99383.55;;;24.26;35.15
72024;BME280;59889;50.700;5.440;2023-05-10T01:38:09;99385.94;;;23.92;35.28
72024;BME280;59889;50.700;5.440;2023-05-10T01:40:32;99386.87;;;24.18;35.25
72024;BME280;59889;50.700;5.440;2023-05-10T01:42:59;99387.47;;;23.92;35.28
72024;BME280;59889;50.700;5.440;2023-05-10T01:45:26;99387.02;;;24.08;35.36
72024;BME280;59889;50.700;5.440;2023-05-10T01:47:49;99389.19;;;24.11;35.34
72024;BME280;59889;50.700;5.440;2023-05-10T01:50:15;99388.36;;;23.91;35.28
72024;BME280;59889;50.700;5.440;2023-05-10T01:52:40;99390.98;;;23.74;35.20
72024;BME280;59889;50.700;5.440;2023-05-10T01:55:06;99393.29;;;24.17;35.24
72024;BME280;59889;50.700;5.440;2023-05-10T01:57:33;99394.11;;;24.24;35.15
72024;BME280;59889;50.700;5.440;2023-05-10T01:59:54;99395.07;;;23.84;35.34
72024;BME280;59889;50.700;5.440;2023-05-10T02:02:21;99396.56;;;23.87;35.32
72024;BME280;59889;50.700;5.440;2023-05-10T02:04:46;99393.61;;;24.33;35.32
72024;BME280;59889;50.700;5.440;2023-05-10T02:07:11;99396.11;;;23.87;35.32
72024;BME280;59889;50.700;5.440;2023-05-10T02:09:38;99393.04;;;23.91;35.26
72024;BME280;59889;50.700;5.440;2023-05-10T02:12:05;99391.83;;;24.01;35.42
72024;BME280;59889;50.700;5.440;2023-05-10T02:14:30;99393.75;;;24.48;35.13
72024;BME280;59889;50.700;5.440;2023-05-10T02:16:55;99394.35;;;23.63;35.31
72024;BME280;59889;50.700;5.440;2023-05-10T02:19:20;99398.73;;;23.84;35.36
72024;BME280;59889;50.700;5.440;2023-05-10T02:21:45;99401.51;;;24.11;35.28
72024;BME280;59889;50.700;5.440;2023-05-10T02:24:10;99402.02;;;24.26;35.40
72024;BME280;59889;50.700;5.440;2023-05-10T02:26:36;99402.19;;;24.13;35.29
72024;BME280;59889;50.700;5.440;2023-05-10T02:29:01;99402.79;;;24.02;35.40
72024;BME280;59889;50.700;5.440;2023-05-10T02:31:26;99400.70;;;24.27;35.38
72024;BME280;59889;50.700;5.440;2023-05-10T02:33:53;99402.30;;;23.49;35.49
72024;BME280;59889;50.700;5.440;2023-05-10T02:36:19;99406.10;;;24.39;35.26
72024;BME280;59889;50.700;5.440;2023-05-10T02:38:44;99408.42;;;24.54;35.08
72024;BME280;59889;50.700;5.440;2023-05-10T02:41:08;99406.52;;;23.93;35.23
72024;BME280;59889;50.700;5.440;2023-05-10T02:43:33;99408.04;;;24.09;35.32
72024;BME280;59889;50.700;5.440;2023-05-10T02:45:58;99407.23;;;24.20;35.16
72024;BME280;59889;50.700;5.440;2023-05-10T02:48:23;99404.73;;;23.82;35.33
72024;BME280;59889;50.700;5.440;2023-05-10T02:50:50;99408.27;;;24.49;35.11
72024;BME280;59889;50.700;5.440;2023-05-10T02:53:18;99409.61;;;23.85;35.31
72024;BME280;59889;50.700;5.440;2023-05-10T02:55:40;99411.17;;;23.96;35.18
72024;BME280;59889;50.700;5.440;2023-05-10T02:58:04;99408.19;;;23.83;35.35
72024;BME280;59889;50.700;5.440;2023-05-10T03:00:29;99409.16;;;24.10;35.29
72024;BME280;59889;50.700;5.440;2023-05-10T03:02:54;99410.92;;;24.06;35.07
72024;BME280;59889;50.700;5.440;2023-05-10T03:05:19;99409.11;;;24.46;35.15
72024;BME280;59889;50.700;5.440;2023-05-10T03:07:44;99406.97;;;23.96;35.16
72024;BME280;59889;50.700;5.440;2023-05-10T03:10:09;99408.55;;;24.19;35.17
72024;BME280;59889;50.700;5.440;2023-05-10T03:12:54;99407.30;;;24.03;35.35
72024;BME280;59889;50.700;5.440;2023-05-10T03:15:05;99407.83;;;23.79;35.36
72024;BME280;59889;50.700;5.440;2023-05-10T03:17:30;99410.57;;;24.38;35.25
72024;BME280;59889;50.700;5.440;2023-05-10T03:19:53;99410.84;;;24.07;35.33
72024;BME280;59889;50.700;5.440;2023-05-10T03:22:21;99410.29;;;24.35;34.95
72024;BME280;59889;50.700;5.440;2023-05-10T03:24:39;99410.06;;;24.05;35.32
72024;BME280;59889;50.700;5.440;2023-05-10T03:27:06;99410.40;;;24.14;35.22
72024;BME280;59889;50.700;5.440;2023-05-10T03:29:31;99411.23;;;23.93;35.20
72024;BME280;59889;50.700;5.440;2023-05-10T03:31:57;99412.43;;;23.87;35.25
72024;BME280;59889;50.700;5.440;2023-05-10T03:34:23;99409.98;;;23.96;35.44
72024;BME280;59889;50.700;5.440;2023-05-10T03:36:46;99412.81;;;24.17;35.20
72024;BME280;59889;50.700;5.440;2023-05-10T03:39:11;99411.27;;;24.01;35.36
72024;BME280;59889;50.700;5.440;2023-05-10T03:41:36;99410.95;;;24.10;35.28
72024;BME280;59889;50.700;5.440;2023-05-10T03:44:02;99410.98;;;24.03;35.36
72024;BME280;59889;50.700;5.440;2023-05-10T03:46:27;99413.87;;;24.08;35.28
72024;BME280;59889;50.700;5.440;2023-05-10T03:48:52;99413.74;;;24.01;35.38
72024;BME280;59889;50.700;5.440;2023-05-10T03:51:17;99414.05;;;23.87;35.24
72024;BME280;59889;50.700;5.440;2023-05-10T03:53:43;99413.39;;;24.08;35.27
72024;BME280;59889;50.700;5.440;2023-05-10T03:56:08;99410.56;;;24.06;35.29
72024;BME280;59889;50.700;5.440;2023-05-10T03:58:33;99409.54;;;24.34;35.27
72024;BME280;59889;50.700;5.440;2023-05-10T04:00:58;99409.04;;;23.81;35.30
72024;BME280;59889;50.700;5.440;2023-05-10T04:03:23;99410.33;;;23.90;35.23
72024;BME280;59889;50.700;5.440;2023-05-10T04:05:48;99411.06;;;24.00;35.39
72024;BME280;59889;50.700;5.440;2023-05-10T04:08:13;99413.37;;;24.09;35.29
72024;BME280;59889;50.700;5.440;2023-05-10T04:10:38;99412.32;;;24.09;35.28
72024;BME280;59889;50.700;5.440;2023-05-10T04:13:03;99416.43;;;23.88;35.23
72024;BME280;59889;50.700;5.440;2023-05-10T04:15:28;99414.71;;;24.02;35.35
72024;BME280;59889;50.700;5.440;2023-05-10T04:17:54;99413.95;;;23.94;35.43
72024;BME280;59889;50.700;5.440;2023-05-10T04:20:19;99412.35;;;24.00;35.36
72024;BME280;59889;50.700;5.440;2023-05-10T04:22:44;99412.19;;;24.00;35.36
72024;BME280;59889;50.700;5.440;2023-05-10T04:25:09;99412.62;;;23.99;35.38
72024;BME280;59889;50.700;5.440;2023-05-10T04:27:34;99414.37;;;24.27;35.33
72024;BME280;59889;50.700;5.440;2023-05-10T04:29:59;99417.03;;;24.31;35.26
72024;BME280;59889;50.700;5.440;2023-05-10T04:32:24;99417.70;;;24.07;35.28
72024;BME280;59889;50.700;5.440;2023-05-10T04:34:49;99425.12;;;24.25;35.04
72024;BME280;59889;50.700;5.440;2023-05-10T04:37:14;99425.28;;;23.81;35.27
72024;BME280;59889;50.700;5.440;2023-05-10T04:39:39;99429.98;;;24.00;35.34
72024;BME280;59889;50.700;5.440;2023-05-10T04:42:04;99431.05;;;23.97;35.53
72024;BME280;59889;50.700;5.440;2023-05-10T04:44:30;99427.81;;;24.01;35.10
72024;BME280;59889;50.700;5.440;2023-05-10T04:46:55;99429.56;;;23.50;35.45
72024;BME280;59889;50.700;5.440;2023-05-10T04:49:20;99430.60;;;23.85;35.32
72024;BME280;59889;50.700;5.440;2023-05-10T04:51:45;99432.37;;;23.76;35.27
72024;BME280;59889;50.700;5.440;2023-05-10T04:54:10;99431.45;;;23.70;35.29
72024;BME280;59889;50.700;5.440;2023-05-10T04:56:35;99432.03;;;23.65;35.40
72024;BME280;59889;50.700;5.440;2023-05-10T04:59:01;99435.81;;;23.55;35.56
72024;BME280;59889;50.700;5.440;2023-05-10T05:01:26;99442.99;;;23.62;35.43
72024;BME280;59889;50.700;5.440;2023-05-10T05:03:51;99434.38;;;23.91;35.62
72024;BME280;59889;50.700;5.440;2023-05-10T05:06:16;99440.22;;;23.73;35.59
72024;BME280;59889;50.700;5.440;2023-05-10T05:08:40;99440.29;;;23.60;35.86
72024;BME280;59889;50.700;5.440;2023-05-10T05:11:06;99445.09;;;23.55;35.94
72024;BME280;59889;50.700;5.440;2023-05-10T05:13:31;99446.85;;;23.48;35.78
72024;BME280;59889;50.700;5.440;2023-05-10T05:15:56;99452.69;;;23.51;35.79
72024;BME280;59889;50.700;5.440;2023-05-10T05:18:21;99458.08;;;23.43;35.95
72024;BME280;59889;50.700;5.440;2023-05-10T05:20:46;99460.72;;;23.65;35.95
72024;BME280;59889;50.700;5.440;2023-05-10T05:23:11;99463.68;;;23.68;35.94
72024;BME280;59889;50.700;5.440;2023-05-10T05:25:36;99460.73;;;23.56;36.11
72024;BME280;59889;50.700;5.440;2023-05-10T05:28:01;99463.47;;;23.54;36.17
72024;BME280;59889;50.700;5.440;2023-05-10T05:30:26;99464.47;;;23.62;36.07
72024;BME280;59889;50.700;5.440;2023-05-10T05:32:52;99466.98;;;23.59;36.12
72024;BME280;59889;50.700;5.440;2023-05-10T05:35:16;99472.31;;;23.56;36.15
72024;BME280;59889;50.700;5.440;2023-05-10T05:37:41;99473.62;;;23.49;36.22
72024;BME280;59889;50.700;5.440;2023-05-10T05:40:08;99478.54;;;23.33;36.11
72024;BME280;59889;50.700;5.440;2023-05-10T05:42:32;99483.29;;;23.56;36.13
72024;BME280;59889;50.700;5.440;2023-05-10T05:44:56;99486.84;;;23.64;36.02
72024;BME280;59889;50.700;5.440;2023-05-10T05:47:22;99488.67;;;23.73;35.84
72024;BME280;59889;50.700;5.440;2023-05-10T05:49:47;99489.85;;;23.60;35.98
72024;BME280;59889;50.700;5.440;2023-05-10T05:52:12;99491.29;;;23.57;36.01
72024;BME280;59889;50.700;5.440;2023-05-10T05:54:37;99497.28;;;23.62;35.94
72024;BME280;59889;50.700;5.440;2023-05-10T05:57:02;99500.14;;;23.48;36.09
72024;BME280;59889;50.700;5.440;2023-05-10T05:59:27;99502.68;;;23.53;36.03
72024;BME280;59889;50.700;5.440;2023-05-10T06:01:52;99502.69;;;23.45;36.10
72024;BME280;59889;50.700;5.440;2023-05-10T06:04:17;99507.67;;;23.42;36.11
72024;BME280;59889;50.700;5.440;2023-05-10T06:06:42;99510.31;;;23.42;36.08
72024;BME280;59889;50.700;5.440;2023-05-10T06:09:07;99510.87;;;23.46;36.04
72024;BME280;59889;50.700;5.440;2023-05-10T06:11:32;99517.40;;;23.46;36.00
72024;BME280;59889;50.700;5.440;2023-05-10T06:13:57;99519.51;;;23.43;36.04
72024;BME280;59889;50.700;5.440;2023-05-10T06:16:22;99520.92;;;23.40;36.07
72024;BME280;59889;50.700;5.440;2023-05-10T06:18:47;99522.26;;;23.40;36.01
72024;BME280;59889;50.700;5.440;2023-05-10T06:21:13;99524.34;;;23.13;36.04
72024;BME280;59889;50.700;5.440;2023-05-10T06:23:38;99527.66;;;23.46;35.93
72024;BME280;59889;50.700;5.440;2023-05-10T06:26:03;99530.67;;;23.41;36.16
72024;BME280;59889;50.700;5.440;2023-05-10T06:28:28;99532.45;;;23.45;36.15
72024;BME280;59889;50.700;5.440;2023-05-10T06:30:53;99536.89;;;23.17;36.18
72024;BME280;59889;50.700;5.440;2023-05-10T06:33:18;99539.81;;;23.37;36.19
72024;BME280;59889;50.700;5.440;2023-05-10T06:35:43;99546.39;;;23.38;36.18
72024;BME280;59889;50.700;5.440;2023-05-10T06:38:08;99547.56;;;23.13;36.17
72024;BME280;59889;50.700;5.440;2023-05-10T06:40:33;99552.82;;;23.36;36.17
72024;BME280;59889;50.700;5.440;2023-05-10T06:42:58;99552.51;;;23.43;36.09
72024;BME280;59889;50.700;5.440;2023-05-10T06:45:23;99559.44;;;23.36;36.20
72024;BME280;59889;50.700;5.440;2023-05-10T06:47:48;99560.91;;;23.42;36.16
72024;BME280;59889;50.700;5.440;2023-05-10T06:50:13;99566.35;;;23.41;36.21
72024;BME280;59889;50.700;5.440;2023-05-10T06:52:39;99569.89;;;23.47;36.14
72024;BME280;59889;50.700;5.440;2023-05-10T06:55:05;99573.20;;;23.44;36.18
72024;BME280;59889;50.700;5.440;2023-05-10T06:57:28;99578.14;;;23.32;36.31
72024;BME280;59889;50.700;5.440;2023-05-10T06:59:53;99581.41;;;23.35;36.28
72024;BME280;59889;50.700;5.440;2023-05-10T07:02:18;99585.07;;;23.22;36.48
72024;BME280;59889;50.700;5.440;2023-05-10T07:04:43;99584.41;;;23.31;36.33
72024;BME280;59889;50.700;5.440;2023-05-10T07:07:09;99583.87;;;23.30;36.30
72024;BME280;59889;50.700;5.440;2023-05-10T07:09:33;99585.01;;;23.14;36.18
72024;BME280;59889;50.700;5.440;2023-05-10T07:11:58;99586.33;;;23.28;36.29
72024;BME280;59889;50.700;5.440;2023-05-10T07:14:24;99587.82;;;23.26;36.29
72024;BME280;59889;50.700;5.440;2023-05-10T07:16:49;99589.52;;;23.30;36.24
72024;BME280;59889;50.700;5.440;2023-05-10T07:19:14;99593.32;;;23.21;36.35
72024;BME280;59889;50.700;5.440;2023-05-10T07:21:39;99592.03;;;23.88;36.10
72024;BME280;59889;50.700;5.440;2023-05-10T07:24:04;99598.43;;;23.21;36.33
72024;BME280;59889;50.700;5.440;2023-05-10T07:26:29;99594.36;;;23.39;36.10
72024;BME280;59889;50.700;5.440;2023-05-10T07:28:54;99598.26;;;23.05;36.24
72024;BME280;59889;50.700;5.440;2023-05-10T07:31:19;99598.75;;;23.25;36.24
72024;BME280;59889;50.700;5.440;2023-05-10T07:33:44;99595.84;;;23.34;36.12
72024;BME280;59889;50.700;5.440;2023-05-10T07:36:09;99598.72;;;23.29;36.19
72024;BME280;59889;50.700;5.440;2023-05-10T07:38:34;99597.55;;;22.95;36.28
72024;BME280;59889;50.700;5.440;2023-05-10T07:40:59;99597.78;;;23.15;36.32
72024;BME280;59889;50.700;5.440;2023-05-10T07:43:24;99599.44;;;23.21;36.22
72024;BME280;59889;50.700;5.440;2023-05-10T07:45:49;99600.98;;;23.34;36.02
72024;BME280;59889;50.700;5.440;2023-05-10T07:48:14;99603.79;;;23.29;36.08
72024;BME280;59889;50.700;5.440;2023-05-10T07:50:39;99606.37;;;23.31;36.06
72024;BME280;59889;50.700;5.440;2023-05-10T07:53:04;99607.13;;;23.31;36.04
72024;BME280;59889;50.700;5.440;2023-05-10T07:55:29;99608.81;;;22.91;36.25
72024;BME280;59889;50.700;5.440;2023-05-10T07:57:54;99612.02;;;23.00;36.12
72024;BME280;59889;50.700;5.440;2023-05-10T08:00:20;99613.00;;;23.29;36.02
72024;BME280;59889;50.700;5.440;2023-05-10T08:02:44;99610.78;;;23.33;35.97
72024;BME280;59889;50.700;5.440;2023-05-10T08:05:09;99609.80;;;23.29;36.02
72024;BME280;59889;50.700;5.440;2023-05-10T08:07:34;99610.61;;;23.41;36.16
72024;BME280;59889;50.700;5.440;2023-05-10T08:09:59;99612.98;;;23.15;36.17
72024;BME280;59889;50.700;5.440;2023-05-10T08:12:24;99614.61;;;23.16;36.14
72024;BME280;59889;50.700;5.440;2023-05-10T08:14:49;99619.24;;;23.09;36.21
72024;BME280;59889;50.700;5.440;2023-05-10T08:17:14;99624.46;;;23.48;36.02
72024;BME280;59889;50.700;5.440;2023-05-10T08:19:39;99626.06;;;23.20;36.04
72024;BME280;59889;50.700;5.440;2023-05-10T08:22:04;99630.81;;;23.21;36.04
72024;BME280;59889;50.700;5.440;2023-05-10T08:24:29;99633.01;;;22.99;36.00
72024;BME280;59889;50.700;5.440;2023-05-10T08:26:54;99636.52;;;22.93;36.05
72024;BME280;59889;50.700;5.440;2023-05-10T08:29:19;99639.86;;;23.23;36.00
72024;BME280;59889;50.700;5.440;2023-05-10T08:31:44;99639.57;;;23.26;35.95
72024;BME280;59889;50.700;5.440;2023-05-10T08:34:09;99642.63;;;23.28;35.90
72024;BME280;59889;50.700;5.440;2023-05-10T08:36:34;99641.88;;;23.20;36.00
72024;BME280;59889;50.700;5.440;2023-05-10T08:38:59;99643.60;;;23.15;36.07
72024;BME280;59889;50.700;5.440;2023-05-10T08:41:24;99644.58;;;23.35;35.80
72024;BME280;59889;50.700;5.440;2023-05-10T08:43:50;99645.58;;;23.16;36.02
72024;BME280;59889;50.700;5.440;2023-05-10T08:46:16;99645.61;;;23.18;35.99
72024;BME280;59889;50.700;5.440;2023-05-10T08:48:39;99647.07;;;23.17;35.99
72024;BME280;59889;50.700;5.440;2023-05-10T08:51:04;99649.55;;;23.22;35.92
72024;BME280;59889;50.700;5.440;2023-05-10T08:53:31;99651.05;;;23.08;36.11
72024;BME280;59889;50.700;5.440;2023-05-10T08:55:55;99654.16;;;22.95;35.97
72024;BME280;59889;50.700;5.440;2023-05-10T08:58:19;99653.42;;;23.26;35.88
72024;BME280;59889;50.700;5.440;2023-05-10T09:00:44;99656.72;;;23.30;35.81
72024;BME280;59889;50.700;5.440;2023-05-10T09:03:09;99656.96;;;23.26;35.85
72024;BME280;59889;50.700;5.440;2023-05-10T09:05:36;99659.69;;;23.30;35.80
72024;BME280;59889;50.700;5.440;2023-05-10T09:07:59;99657.15;;;23.33;35.77
72024;BME280;59889;50.700;5.440;2023-05-10T09:10:25;99661.84;;;23.27;35.85
72024;BME280;59889;50.700;5.440;2023-05-10T09:12:50;99664.37;;;23.28;35.85
72024;BME280;59889;50.700;5.440;2023-05-10T09:15:15;99666.43;;;23.22;35.93
72024;BME280;59889;50.700;5.440;2023-05-10T09:17:40;99668.54;;;23.19;35.97
72024;BME280;59889;50.700;5.440;2023-05-10T09:20:06;99667.17;;;23.25;35.90
72024;BME280;59889;50.700;5.440;2023-05-10T09:22:30;99668.14;;;23.19;35.97
72024;BME280;59889;50.700;5.440;2023-05-10T09:25:05;99670.28;;;22.92;35.99
72024;BME280;59889;50.700;5.440;2023-05-10T09:27:26;99670.32;;;23.13;36.02
72024;BME280;59889;50.700;5.440;2023-05-10T09:29:44;99671.32;;;23.23;35.89
72024;BME280;59889;50.700;5.440;2023-05-10T09:32:09;99669.00;;;23.14;36.00
72024;BME280;59889;50.700;5.440;2023-05-10T09:34:34;99671.59;;;22.77;36.13
72024;BME280;59889;50.700;5.440;2023-05-10T09:37:01;99673.84;;;23.18;35.93
72024;BME280;59889;50.700;5.440;2023-05-10T09:39:31;99677.24;;;23.15;35.99
72024;BME280;59889;50.700;5.440;2023-05-10T09:41:50;99680.19;;;23.21;35.88
72024;BME280;59889;50.700;5.440;2023-05-10T09:44:17;99685.49;;;22.92;35.94
72024;BME280;59889;50.700;5.440;2023-05-10T09:46:39;99686.72;;;23.20;35.91
72024;BME280;59889;50.700;5.440;2023-05-10T09:49:05;99689.78;;;23.15;35.96
72024;BME280;59889;50.700;5.440;2023-05-10T09:51:30;99691.73;;;23.27;35.82
72024;BME280;59889;50.700;5.440;2023-05-10T09:58:45;99694.61;;;23.29;35.78
72024;BME280;59889;50.700;5.440;2023-05-10T10:01:11;99694.42;;;23.16;35.98
72024;BME280;59889;50.700;5.440;2023-05-10T10:03:41;99693.92;;;23.22;35.87
72024;BME280;59889;50.700;5.440;2023-05-10T10:05:59;99694.44;;;23.14;35.98
72024;BME280;59889;50.700;5.440;2023-05-10T10:08:25;99693.72;;;23.19;35.93
72024;BME280;59889;50.700;5.440;2023-05-10T10:10:49;99692.86;;;23.23;35.85
72024;BME280;59889;50.700;5.440;2023-05-10T10:13:15;99694.07;;;23.06;36.07
72024;BME280;59889;50.700;5.440;2023-05-10T10:15:40;99697.58;;;23.08;36.05
72024;BME280;59889;50.700;5.440;2023-05-10T10:18:05;99697.63;;;23.39;35.95
72024;BME280;59889;50.700;5.440;2023-05-10T10:20:30;99697.34;;;23.07;36.05
72024;BME280;59889;50.700;5.440;2023-05-10T10:22:55;99697.91;;;23.12;35.98
72024;BME280;59889;50.700;5.440;2023-05-10T10:25:20;99698.84;;;23.45;35.65
72024;BME280;59889;50.700;5.440;2023-05-10T10:27:52;99700.28;;;23.18;35.96
72024;BME280;59889;50.700;5.440;2023-05-10T10:30:19;99697.55;;;22.86;36.03
72024;BME280;59889;50.700;5.440;2023-05-10T10:32:45;99697.34;;;23.10;36.05
72024;BME280;59889;50.700;5.440;2023-05-10T10:35:00;99698.27;;;23.10;36.02
72024;BME280;59889;50.700;5.440;2023-05-10T10:39:51;99696.65;;;23.10;36.04
72024;BME280;59889;50.700;5.440;2023-05-10T10:44:43;99695.59;;;23.19;35.91
72024;BME280;59889;50.700;5.440;2023-05-10T10:47:21;99697.19;;;23.08;36.04
72024;BME280;59889;50.700;5.440;2023-05-10T10:49:37;99691.80;;;23.07;35.73
72024;BME280;59889;50.700;5.440;2023-05-10T10:52:13;99693.52;;;23.13;36.00
72024;BME280;59889;50.700;5.440;2023-05-10T10:54:27;99691.69;;;23.28;35.88
72024;BME280;59889;50.700;5.440;2023-05-10T11:01:41;99698.48;;;23.15;36.18
72024;BME280;59889;50.700;5.440;2023-05-10T11:04:16;99697.76;;;23.15;36.16
72024;BME280;59889;50.700;5.440;2023-05-10T11:06:30;99698.52;;;22.93;36.13
72024;BME280;59889;50.700;5.440;2023-05-10T11:08:53;99698.64;;;23.15;36.15
72024;BME280;59889;50.700;5.440;2023-05-10T11:11:18;99698.02;;;23.25;36.03
72024;BME280;59889;50.700;5.440;2023-05-10T11:13:44;99700.36;;;23.03;36.28
72024;BME280;59889;50.700;5.440;2023-05-10T11:16:12;99700.53;;;22.89;36.16
72024;BME280;59889;50.700;5.440;2023-05-10T11:18:33;99701.24;;;23.16;36.14
72024;BME280;59889;50.700;5.440;2023-05-10T11:21:00;99698.36;;;23.14;36.16
72024;BME280;59889;50.700;5.440;2023-05-10T11:23:23;99695.72;;;23.23;36.03
72024;BME280;59889;50.700;5.440;2023-05-10T11:25:49;99699.02;;;23.16;36.12
72024;BME280;59889;50.700;5.440;2023-05-10T11:28:13;99701.44;;;23.07;36.24
72024;BME280;59889;50.700;5.440;2023-05-10T11:30:39;99698.46;;;23.34;36.19
72024;BME280;59889;50.700;5.440;2023-05-10T11:33:03;99700.31;;;23.14;36.13
72024;BME280;59889;50.700;5.440;2023-05-10T11:35:28;99704.52;;;23.19;36.09
72024;BME280;59889;50.700;5.440;2023-05-10T11:37:53;99702.63;;;23.50;35.98
72024;BME280;59889;50.700;5.440;2023-05-10T11:40:18;99706.38;;;23.25;36.02
72024;BME280;59889;50.700;5.440;2023-05-10T11:42:43;99703.51;;;23.50;36.01
72024;BME280;59889;50.700;5.440;2023-05-10T11:45:09;99704.81;;;23.12;36.16
72024;BME280;59889;50.700;5.440;2023-05-10T11:47:33;99704.01;;;23.13;36.16
72024;BME280;59889;50.700;5.440;2023-05-10T11:49:58;99706.85;;;23.09;36.20
72024;BME280;59889;50.700;5.440;2023-05-10T11:52:23;99704.99;;;23.09;36.19
72024;BME280;59889;50.700;5.440;2023-05-10T11:54:51;99701.78;;;23.17;36.10
72024;BME280;59889;50.700;5.440;2023-05-10T11:57:13;99697.67;;;23.31;35.92
72024;BME280;59889;50.700;5.440;2023-05-10T11:59:38;99694.31;;;23.20;36.07
72024;BME280;59889;50.700;5.440;2023-05-10T12:02:03;99692.33;;;23.24;36.02
72024;BME280;59889;50.700;5.440;2023-05-10T12:04:28;99692.10;;;23.22;36.07
72024;BME280;59889;50.700;5.440;2023-05-10T12:06:53;99694.80;;;23.24;36.02
72024;BME280;59889;50.700;5.440;2023-05-10T12:09:18;99694.53;;;23.25;36.02
72024;BME280;59889;50.700;5.440;2023-05-10T12:11:44;99698.38;;;23.09;36.25
72024;BME280;59889;50.700;5.440;2023-05-10T12:14:09;99698.18;;;23.24;36.05
72024;BME280;59889;50.700;5.440;2023-05-10T12:16:35;99701.45;;;23.19;36.11
72024;BME280;59889;50.700;5.440;2023-05-10T12:19:00;99700.95;;;23.52;35.99
72024;BME280;59889;50.700;5.440;2023-05-10T12:21:25;99700.76;;;23.31;35.97
72024;BME280;59889;50.700;5.440;2023-05-10T12:23:51;99699.31;;;23.36;35.89
72024;BME280;59889;50.700;5.440;2023-05-10T12:26:14;99704.23;;;23.34;35.92
72024;BME280;59889;50.700;5.440;2023-05-10T12:28:39;99703.53;;;23.29;35.99
72024;BME280;59889;50.700;5.440;2023-05-10T12:31:05;99704.43;;;23.36;35.89
72024;BME280;59889;50.700;5.440;2023-05-10T12:33:35;99710.44;;;23.19;36.11
72024;BME280;59889;50.700;5.440;2023-05-10T12:35:54;99709.99;;;22.95;36.10
72024;BME280;59889;50.700;5.440;2023-05-10T12:38:26;99710.25;;;23.23;36.09
72024;BME280;59889;50.700;5.440;2023-05-10T12:40:45;99709.18;;;23.29;35.98
72024;BME280;59889;50.700;5.440;2023-05-10T12:43:10;99707.20;;;23.28;35.98
72024;BME280;59889;50.700;5.440;2023-05-10T12:45:35;99712.12;;;23.24;36.03
72024;BME280;59889;50.700;5.440;2023-05-10T12:48:00;99711.14;;;23.27;36.00
72024;BME280;59889;50.700;5.440;2023-05-10T12:50:25;99713.21;;;23.17;36.12
72024;BME280;59889;50.700;5.440;2023-05-10T12:52:50;99710.40;;;23.18;36.14
72024;BME280;59889;50.700;5.440;2023-05-10T12:55:15;99707.73;;;23.18;36.16
72024;BME280;59889;50.700;5.440;2023-05-10T12:57:40;99710.12;;;23.28;36.03
72024;BME280;59889;50.700;5.440;2023-05-10T13:00:07;99714.66;;;23.70;36.13
72024;BME280;59889;50.700;5.440;2023-05-10T13:02:30;99717.12;;;23.21;36.17
72024;BME280;59889;50.700;5.440;2023-05-10T13:04:55;99719.83;;;23.15;36.26